Time;durP1;ratioP1;P1;durP2;ratioP2;P2;SDS_P1;SDS_P2;PMS_P1;PMS_P2;Temp;Humidity;BMP_temperature;BMP_pressure;BME280_temperature;BME280_humidity;BME280_pressure;Samples;Min_cycle;Max_cycle;Signal;HPM_P1;HPM_P2
2021/01/03 00:02:10;;;;;;;9.45;4.15;;;;;;;;;;5012804;28;20057;-82
2021/01/03 00:04:38;;;;;;;11.98;4.78;;;;;;;;;;5012593;28;20096;-81
2021/01/03 00:07:05;;;;;;;12.23;4.55;;;;;;;;;;5012695;28;20061;-81
2021/01/03 00:09:31;;;;;;;12.13;5.07;;;;;;;;;;5012939;28;20018;-83
2021/01/03 00:11:57;;;;;;;11.68;4.82;;;;;;;;;;5013751;28;20060;-82
2021/01/03 00:14:30;;;;;;;8.05;3.90;;;;;;;;;;5013521;28;20022;-80
2021/01/03 00:16:58;;;;;;;12.93;5.07;;;;;;;;;;5012484;28;20391;-82
2021/01/03 00:19:24;;;;;;;8.88;4.80;;;;;;;;;;5013626;28;20056;-83
2021/01/03 00:21:51;;;;;;;11.30;4.88;;;;;;;;;;5012221;28;20038;-81
2021/01/03 00:24:17;;;;;;;9.93;3.65;;;;;;;;;;5013710;28;20025;-81
2021/01/03 00:26:44;;;;;;;12.10;4.68;;;;;;;;;;5013043;28;20061;-82
2021/01/03 00:29:10;;;;;;;10.60;4.55;;;;;;;;;;5013627;28;20122;-82
2021/01/03 00:31:37;;;;;;;9.90;4.38;;;;;;;;;;5013489;28;20084;-81
2021/01/03 00:34:05;;;;;;;11.48;4.63;;;;;;;;;;5013778;28;20022;-80
2021/01/03 00:36:32;;;;;;;11.63;4.72;;;;;;;;;;5012001;28;20401;-82
2021/01/03 00:38:58;;;;;;;12.32;4.50;;;;;;;;;;5013260;28;20389;-82
2021/01/03 00:41:25;;;;;;;12.38;5.22;;;;;;;;;;5013713;28;20087;-82
2021/01/03 00:43:51;;;;;;;16.45;4.28;;;;;;;;;;5013397;28;20033;-82
2021/01/03 00:46:17;;;;;;;14.48;5.00;;;;;;;;;;5013369;28;20076;-69
2021/01/03 00:48:44;;;;;;;9.05;4.30;;;;;;;;;;5013133;28;20074;-82
2021/01/03 00:51:10;;;;;;;10.88;5.15;;;;;;;;;;5013364;28;20541;-81
2021/01/03 00:53:36;;;;;;;13.50;4.97;;;;;;;;;;5013311;28;20050;-69
2021/01/03 00:56:03;;;;;;;18.15;5.10;;;;;;;;;;5013246;28;20038;-74
2021/01/03 00:58:29;;;;;;;8.88;4.55;;;;;;;;;;5013336;28;20054;-82
2021/01/03 01:00:55;;;;;;;8.02;3.88;;;;;;;;;;5013322;28;20030;-82
2021/01/03 01:03:22;;;;;;;10.95;4.78;;;;;;;;;;5011824;28;20026;-81
2021/01/03 01:05:48;;;;;;;13.15;5.07;;;;;;;;;;5011935;28;20030;-80
2021/01/03 01:08:14;;;;;;;11.32;4.88;;;;;;;;;;5015016;28;20045;-83
2021/01/03 01:10:40;;;;;;;8.00;4.03;;;;;;;;;;5015649;28;20044;-81
2021/01/03 01:13:06;;;;;;;7.55;3.05;;;;;;;;;;5015679;28;20160;-80
2021/01/03 01:15:33;;;;;;;7.90;3.88;;;;;;;;;;5015637;28;20041;-81
2021/01/03 01:18:02;;;;;;;9.63;4.75;;;;;;;;;;5016871;28;20033;-82
2021/01/03 01:20:29;;;;;;;12.93;5.50;;;;;;;;;;5015743;28;20026;-68
2021/01/03 01:22:55;;;;;;;12.05;5.07;;;;;;;;;;5016911;28;20036;-71
2021/01/03 01:25:23;;;;;;;12.23;5.18;;;;;;;;;;5016824;28;20030;-82
2021/01/03 01:27:49;;;;;;;11.00;5.18;;;;;;;;;;5016466;28;20064;-66
2021/01/03 01:30:16;;;;;;;9.13;5.25;;;;;;;;;;5016632;28;20038;-68
2021/01/03 01:32:43;;;;;;;10.65;5.25;;;;;;;;;;5015223;28;20026;-74
2021/01/03 01:35:10;;;;;;;12.75;5.18;;;;;;;;;;5016551;28;20038;-81
2021/01/03 01:37:36;;;;;;;9.57;4.65;;;;;;;;;;5015388;28;20034;-68
2021/01/03 01:40:04;;;;;;;14.07;4.60;;;;;;;;;;5015266;28;20034;-81
2021/01/03 01:42:30;;;;;;;9.13;4.32;;;;;;;;;;5015061;28;20109;-81
2021/01/03 01:44:57;;;;;;;12.52;4.53;;;;;;;;;;5016497;28;20468;-68
2021/01/03 01:47:29;;;;;;;12.10;5.68;;;;;;;;;;5016589;28;20028;-82
2021/01/03 01:49:57;;;;;;;11.07;4.22;;;;;;;;;;5016310;28;20052;-77
2021/01/03 01:52:26;;;;;;;8.57;4.38;;;;;;;;;;5015282;28;20022;-82
2021/01/03 01:54:56;;;;;;;9.73;4.93;;;;;;;;;;5014892;28;20124;-81
2021/01/03 01:57:29;;;;;;;13.70;4.70;;;;;;;;;;5014846;28;20066;-80
2021/01/03 01:59:56;;;;;;;8.90;5.22;;;;;;;;;;5014684;28;20447;-79
2021/01/03 02:02:24;;;;;;;13.82;5.03;;;;;;;;;;5016121;28;20034;-81
2021/01/03 02:04:54;;;;;;;9.48;3.75;;;;;;;;;;5014778;28;20038;-81
2021/01/03 02:07:24;;;;;;;8.95;4.53;;;;;;;;;;5015962;28;20109;-80
2021/01/03 02:10:09;;;;;;;9.07;4.15;;;;;;;;;;5014753;28;20034;-81
2021/01/03 02:12:37;;;;;;;12.63;4.80;;;;;;;;;;5014593;28;20026;-68
2021/01/03 02:15:07;;;;;;;13.52;4.65;;;;;;;;;;5014540;28;20080;-68
2021/01/03 02:17:33;;;;;;;11.00;4.47;;;;;;;;;;5014179;28;20026;-80
2021/01/03 02:19:59;;;;;;;12.07;4.55;;;;;;;;;;5015813;28;20054;-80
2021/01/03 02:22:26;;;;;;;11.75;4.85;;;;;;;;;;5014542;28;20029;-69
2021/01/03 02:24:57;;;;;;;10.25;4.78;;;;;;;;;;5015714;28;20081;-68
2021/01/03 02:27:29;;;;;;;9.93;4.72;;;;;;;;;;5013912;28;20049;-81
2021/01/03 02:29:57;;;;;;;12.80;4.90;;;;;;;;;;5014378;28;20034;-69
2021/01/03 02:32:25;;;;;;;8.40;4.60;;;;;;;;;;4998114;28;20399;-80
2021/01/03 02:34:53;;;;;;;11.57;4.30;;;;;;;;;;5014046;28;20029;-80
2021/01/03 02:37:23;;;;;;;14.38;4.95;;;;;;;;;;5015874;28;20109;-68
2021/01/03 02:39:49;;;;;;;8.63;4.05;;;;;;;;;;5014140;28;20030;-81
2021/01/03 02:42:29;;;;;;;11.93;4.50;;;;;;;;;;5014228;28;20030;-74
2021/01/03 02:44:56;;;;;;;7.80;2.88;;;;;;;;;;5014088;28;20397;-69
2021/01/03 02:47:25;;;;;;;11.52;4.20;;;;;;;;;;5015250;28;20022;-68
2021/01/03 02:49:51;;;;;;;7.80;3.85;;;;;;;;;;5015157;28;20030;-79
2021/01/03 02:52:38;;;;;;;8.27;3.60;;;;;;;;;;5015187;28;20026;-68
2021/01/03 02:55:05;;;;;;;9.57;3.95;;;;;;;;;;5013710;28;20121;-69
2021/01/03 02:57:31;;;;;;;9.55;3.95;;;;;;;;;;5014923;28;20532;-81
2021/01/03 02:59:58;;;;;;;7.35;3.15;;;;;;;;;;5015029;28;20474;-68
2021/01/03 03:02:24;;;;;;;11.70;4.45;;;;;;;;;;5015174;28;20026;-67
2021/01/03 03:04:50;;;;;;;9.23;4.35;;;;;;;;;;5013654;28;20030;-67
2021/01/03 03:07:16;;;;;;;17.40;4.90;;;;;;;;;;5014655;28;20030;-80
2021/01/03 03:09:43;;;;;;;11.90;5.07;;;;;;;;;;5015114;28;20033;-82
2021/01/03 03:12:09;;;;;;;13.10;4.70;;;;;;;;;;5014830;28;20075;-81
2021/01/03 03:14:38;;;;;;;11.57;5.05;;;;;;;;;;5014715;28;20033;-64
2021/01/03 03:17:06;;;;;;;9.07;4.18;;;;;;;;;;5015006;28;20153;-67
2021/01/03 03:19:32;;;;;;;13.30;5.22;;;;;;;;;;5013182;28;20029;-82
2021/01/03 03:21:58;;;;;;;10.27;4.40;;;;;;;;;;5013455;28;20386;-81
2021/01/03 03:24:25;;;;;;;11.68;4.85;;;;;;;;;;5014621;28;20108;-82
2021/01/03 03:26:52;;;;;;;8.88;4.55;;;;;;;;;;5014346;28;20056;-81
2021/01/03 03:29:18;;;;;;;10.57;5.13;;;;;;;;;;5013873;28;20022;-81
2021/01/03 03:31:45;;;;;;;9.43;4.35;;;;;;;;;;5014711;28;20061;-81
2021/01/03 03:34:11;;;;;;;10.55;4.45;;;;;;;;;;5014201;28;20105;-80
2021/01/03 03:36:37;;;;;;;9.27;4.72;;;;;;;;;;5014260;28;20037;-79
2021/01/03 03:39:04;;;;;;;11.68;4.90;;;;;;;;;;5014477;28;20037;-81
2021/01/03 03:41:30;;;;;;;10.93;5.13;;;;;;;;;;5014424;28;20025;-77
2021/01/03 03:43:57;;;;;;;11.95;5.30;;;;;;;;;;5014353;28;20018;-68
2021/01/03 03:46:23;;;;;;;12.88;4.97;;;;;;;;;;5014109;28;20030;-82
2021/01/03 03:48:49;;;;;;;13.45;4.80;;;;;;;;;;5014138;28;20018;-81
2021/01/03 03:51:19;;;;;;;9.90;4.60;;;;;;;;;;5012910;28;20077;-71
2021/01/03 03:53:45;;;;;;;10.32;4.75;;;;;;;;;;5012918;28;20026;-74
2021/01/03 03:56:12;;;;;;;8.30;4.75;;;;;;;;;;5013989;28;20042;-81
2021/01/03 03:58:38;;;;;;;10.32;5.00;;;;;;;;;;5013984;28;20030;-69
2021/01/03 04:01:05;;;;;;;11.73;5.05;;;;;;;;;;5013966;28;20057;-81
2021/01/03 04:03:32;;;;;;;10.70;4.55;;;;;;;;;;5013951;28;20105;-82
2021/01/03 04:05:58;;;;;;;12.75;4.93;;;;;;;;;;5013942;28;20521;-82
2021/01/03 04:08:25;;;;;;;10.15;4.50;;;;;;;;;;5014332;28;20033;-78
2021/01/03 04:10:51;;;;;;;11.43;5.18;;;;;;;;;;5012492;28;20030;-66
2021/01/03 04:13:17;;;;;;;11.20;4.47;;;;;;;;;;4996134;28;20033;-82
2021/01/03 04:15:43;;;;;;;13.18;5.35;;;;;;;;;;4996250;28;20034;-81
2021/01/03 04:18:10;;;;;;;11.40;5.00;;;;;;;;;;5014024;28;20390;-81
2021/01/03 04:20:37;;;;;;;12.23;6.07;;;;;;;;;;5013823;28;20036;-69
2021/01/03 04:23:07;;;;;;;12.45;5.00;;;;;;;;;;5013531;28;20496;-82
2021/01/03 04:25:33;;;;;;;14.02;5.47;;;;;;;;;;5013636;28;20494;-69
2021/01/03 04:27:59;;;;;;;12.57;5.55;;;;;;;;;;5013657;28;20045;-81
2021/01/03 04:30:26;;;;;;;12.38;6.15;;;;;;;;;;5013561;28;20033;-75
2021/01/03 04:32:53;;;;;;;16.02;6.72;;;;;;;;;;5013749;28;20423;-81
2021/01/03 04:35:20;;;;;;;14.25;5.82;;;;;;;;;;5012219;28;20049;-70
2021/01/03 04:37:46;;;;;;;11.63;5.43;;;;;;;;;;5012250;28;20356;-68
2021/01/03 04:40:17;;;;;;;9.75;4.60;;;;;;;;;;5013601;28;20063;-81
2021/01/03 04:42:45;;;;;;;9.27;4.30;;;;;;;;;;5013359;28;20064;-82
2021/01/03 04:45:20;;;;;;;14.80;5.00;;;;;;;;;;5012075;28;20072;-82
2021/01/03 04:47:54;;;;;;;11.07;4.75;;;;;;;;;;5011797;28;20025;-82
2021/01/03 04:50:39;;;;;;;11.95;4.50;;;;;;;;;;5012003;28;20040;-75
2021/01/03 04:53:17;;;;;;;8.40;3.90;;;;;;;;;;5013275;28;20096;-79
2021/01/03 04:55:46;;;;;;;7.53;3.47;;;;;;;;;;5013127;28;20522;-80
2021/01/03 04:58:12;;;;;;;12.88;4.47;;;;;;;;;;5000348;28;20034;-71
2021/01/03 05:00:47;;;;;;;7.22;4.28;;;;;;;;;;4992305;28;20058;-80
2021/01/03 05:03:19;;;;;;;9.73;3.72;;;;;;;;;;4992197;28;20034;-80
2021/01/03 05:05:50;;;;;;;9.93;4.75;;;;;;;;;;4992261;28;20062;-78
2021/01/03 05:08:16;;;;;;;8.52;4.07;;;;;;;;;;4993463;28;20502;-71
2021/01/03 05:10:43;;;;;;;8.40;3.80;;;;;;;;;;4993287;28;20498;-66
2021/01/03 05:13:12;;;;;;;7.90;3.65;;;;;;;;;;4993460;28;20468;-72
2021/01/03 05:15:38;;;;;;;9.70;4.50;;;;;;;;;;4993410;28;20490;-82
2021/01/03 05:18:05;;;;;;;10.40;4.63;;;;;;;;;;4992157;28;20041;-82
2021/01/03 05:20:32;;;;;;;13.38;4.25;;;;;;;;;;4991955;28;20026;-81
2021/01/03 05:23:18;;;;;;;7.55;3.17;;;;;;;;;;4992144;28;20467;-68
2021/01/03 05:25:45;;;;;;;5.65;2.90;;;;;;;;;;4993029;28;20132;-68
2021/01/03 05:28:32;;;;;;;7.43;3.35;;;;;;;;;;4992028;28;20403;-82
2021/01/03 05:31:12;;;;;;;9.20;3.75;;;;;;;;;;4991894;28;20050;-71
2021/01/03 05:33:48;;;;;;;9.95;4.22;;;;;;;;;;4991993;28;20030;-81
2021/01/03 05:36:21;;;;;;;10.50;4.18;;;;;;;;;;4975888;28;20395;-82
2021/01/03 05:38:47;;;;;;;9.65;4.38;;;;;;;;;;4992097;28;20028;-82
2021/01/03 05:41:16;;;;;;;10.43;4.30;;;;;;;;;;4993264;28;20066;-82
2021/01/03 05:43:43;;;;;;;9.57;4.53;;;;;;;;;;4991900;28;20499;-68
2021/01/03 05:46:17;;;;;;;12.60;4.38;;;;;;;;;;4993212;28;20041;-81
2021/01/03 05:49:04;;;;;;;11.00;4.47;;;;;;;;;;4992033;28;20027;-82
2021/01/03 05:51:46;;;;;;;9.07;4.30;;;;;;;;;;4991878;28;20529;-82
2021/01/03 05:54:22;;;;;;;8.98;4.38;;;;;;;;;;4994818;28;20027;-83
2021/01/03 05:56:48;;;;;;;8.38;4.00;;;;;;;;;;4995253;28;20038;-76
2021/01/03 05:59:16;;;;;;;13.57;4.60;;;;;;;;;;4996543;28;20030;-68
2021/01/03 06:01:42;;;;;;;13.27;3.97;;;;;;;;;;4996659;28;20077;-82
2021/01/03 06:04:13;;;;;;;9.00;3.95;;;;;;;;;;4995059;28;20029;-80
2021/01/03 06:06:48;;;;;;;7.57;3.85;;;;;;;;;;5004104;28;20434;-76
2021/01/03 06:09:15;;;;;;;7.72;3.92;;;;;;;;;;5010637;28;20501;-70
2021/01/03 06:11:41;;;;;;;9.93;4.30;;;;;;;;;;5014497;28;20026;-82
2021/01/03 06:14:08;;;;;;;9.20;4.75;;;;;;;;;;5016146;28;20108;-81
2021/01/03 06:16:42;;;;;;;8.90;4.05;;;;;;;;;;5014586;28;20061;-81
2021/01/03 06:19:08;;;;;;;;;;;;;;;;;;5014884;28;20056;-81
2021/01/03 06:21:39;;;;;;;9.82;4.07;;;;;;;;;;5014482;28;19906;-83
2021/01/03 06:24:05;;;;;;;12.60;4.65;;;;;;;;;;5015845;28;20037;-82
2021/01/03 06:26:35;;;;;;;9.95;4.03;;;;;;;;;;5014002;28;20046;-67
2021/01/03 06:29:06;;;;;;;10.75;4.57;;;;;;;;;;5015805;28;20382;-79
2021/01/03 06:31:39;;;;;;;9.73;4.38;;;;;;;;;;5015655;28;20463;-67
2021/01/03 06:34:08;;;;;;;11.48;4.47;;;;;;;;;;5014171;28;20036;-80
2021/01/03 06:36:53;;;;;;;10.13;3.88;;;;;;;;;;5014057;28;20078;-81
2021/01/03 06:39:33;;;;;;;11.18;4.70;;;;;;;;;;5015542;28;20079;-82
2021/01/03 06:42:02;;;;;;;9.32;4.07;;;;;;;;;;5013972;28;20026;-80
2021/01/03 06:44:47;;;;;;;11.20;4.63;;;;;;;;;;5014107;28;20121;-80
2021/01/03 06:47:22;;;;;;;11.43;4.30;;;;;;;;;;5015276;28;20374;-81
2021/01/03 06:50:06;;;;;;;9.18;3.75;;;;;;;;;;5013973;28;20025;-82
2021/01/03 06:52:33;;;;;;;;;;;;;;;;;;5014444;28;20030;-82
2021/01/03 06:55:02;;;;;;;6.90;3.38;;;;;;;;;;5013759;28;19916;-82
2021/01/03 06:57:43;;;;;;;10.20;4.18;;;;;;;;;;5013910;28;20106;-81
2021/01/03 07:00:21;;;;;;;10.82;4.38;;;;;;;;;;5013726;28;20022;-80
2021/01/03 07:02:50;;;;;;;8.30;3.78;;;;;;;;;;5015057;28;20025;-66
2021/01/03 07:05:17;;;;;;;8.23;3.53;;;;;;;;;;5012520;28;20030;-67
2021/01/03 07:07:45;;;;;;;8.82;4.35;;;;;;;;;;5013578;28;20030;-81
2021/01/03 07:10:13;;;;;;;11.38;4.25;;;;;;;;;;5013546;28;20049;-66
2021/01/03 07:12:39;;;;;;;11.60;3.78;;;;;;;;;;5014819;28;20471;-69
2021/01/03 07:15:09;;;;;;;16.55;4.72;;;;;;;;;;5014725;28;20474;-66
2021/01/03 07:17:54;;;;;;;8.98;4.28;;;;;;;;;;5013297;28;20037;-71
2021/01/03 07:20:23;;;;;;;8.73;4.25;;;;;;;;;;5013812;28;20042;-67
2021/01/03 07:22:50;;;;;;;8.98;4.43;;;;;;;;;;5013343;28;20026;-69
2021/01/03 07:25:20;;;;;;;14.20;5.10;;;;;;;;;;5014661;28;20538;-68
2021/01/03 07:28:07;;;;;;;9.57;4.53;;;;;;;;;;5013052;28;20498;-69
2021/01/03 07:30:39;;;;;;;10.75;4.35;;;;;;;;;;5004030;28;20026;-69
2021/01/03 07:33:12;;;;;;;9.15;4.47;;;;;;;;;;5014434;28;20045;-67
2021/01/03 07:35:42;;;;;;;8.05;4.18;;;;;;;;;;5011370;28;20141;-65
2021/01/03 07:38:24;;;;;;;10.68;4.22;;;;;;;;;;4998424;28;20049;-72
2021/01/03 07:40:54;;;;;;;11.40;4.80;;;;;;;;;;4994599;28;20031;-68
2021/01/03 07:43:20;;;;;;;9.68;4.15;;;;;;;;;;4994643;28;20396;-73
2021/01/03 07:45:47;;;;;;;9.98;4.53;;;;;;;;;;4998114;28;20035;-66
2021/01/03 07:48:34;;;;;;;9.82;4.10;;;;;;;;;;5009934;28;20483;-67
2021/01/03 07:51:01;;;;;;;12.00;5.75;;;;;;;;;;5012587;28;20025;-67
2021/01/03 07:53:29;;;;;;;9.13;3.97;;;;;;;;;;5014161;28;20044;-66
2021/01/03 07:56:14;;;;;;;10.68;4.40;;;;;;;;;;5012655;28;20069;-68
2021/01/03 07:58:40;;;;;;;11.63;4.85;;;;;;;;;;5012599;28;20022;-68
2021/01/03 08:01:07;;;;;;;10.63;4.40;;;;;;;;;;5013994;28;20033;-68
2021/01/03 08:03:34;;;;;;;9.82;4.35;;;;;;;;;;5012646;28;20026;-68
2021/01/03 08:06:07;;;;;;;11.00;4.65;;;;;;;;;;5012634;28;20450;-67
2021/01/03 08:08:34;;;;;;;10.32;3.97;;;;;;;;;;5012593;28;20545;-66
2021/01/03 08:11:18;;;;;;;8.57;4.20;;;;;;;;;;5012558;28;20034;-67
2021/01/03 08:13:46;;;;;;;10.63;5.00;;;;;;;;;;5012335;28;20486;-68
2021/01/03 08:16:19;;;;;;;11.32;3.75;;;;;;;;;;5013463;28;20033;-68
2021/01/03 08:18:53;;;;;;;11.95;4.32;;;;;;;;;;5012589;28;20112;-67
2021/01/03 08:21:20;;;;;;;9.75;4.45;;;;;;;;;;5012503;28;20130;-65
2021/01/03 08:23:47;;;;;;;8.70;3.92;;;;;;;;;;5012098;28;20124;-68
2021/01/03 08:26:13;;;;;;;8.07;4.05;;;;;;;;;;5012099;28;20026;-67
2021/01/03 08:28:59;;;;;;;8.30;3.67;;;;;;;;;;5013643;28;20477;-68
2021/01/03 08:31:26;;;;;;;11.70;3.90;;;;;;;;;;4982679;28;20061;-67
2021/01/03 08:33:54;;;;;;;11.63;4.38;;;;;;;;;;5012181;28;20030;-68
2021/01/03 08:36:30;;;;;;;12.98;4.97;;;;;;;;;;5012120;28;20077;-68
2021/01/03 08:39:08;;;;;;;11.45;5.22;;;;;;;;;;5011978;28;20022;-69
2021/01/03 08:41:37;;;;;;;9.73;4.45;;;;;;;;;;4999805;28;20053;-76
2021/01/03 08:44:04;;;;;;;11.35;5.22;;;;;;;;;;4993839;28;20026;-75
2021/01/03 08:46:32;;;;;;;10.90;5.22;;;;;;;;;;4991809;28;20053;-70
2021/01/03 08:49:06;;;;;;;9.25;4.43;;;;;;;;;;4991556;28;20446;-79
2021/01/03 08:51:32;;;;;;;11.02;4.50;;;;;;;;;;4992335;28;20455;-82
2021/01/03 08:54:00;;;;;;;10.27;4.90;;;;;;;;;;4992331;28;20049;-70
2021/01/03 08:56:29;;;;;;;10.48;4.45;;;;;;;;;;4993353;28;20042;-80
2021/01/03 08:58:55;;;;;;;9.45;4.70;;;;;;;;;;4993558;28;20126;-74
2021/01/03 09:01:22;;;;;;;13.32;3.95;;;;;;;;;;4992359;28;20089;-80
2021/01/03 09:03:49;;;;;;;10.80;4.55;;;;;;;;;;4992310;28;20391;-79
2021/01/03 09:06:15;;;;;;;7.00;3.08;;;;;;;;;;4993704;28;20034;-79
2021/01/03 09:08:42;;;;;;;12.15;5.05;;;;;;;;;;4992998;28;20023;-67
2021/01/03 09:11:27;;;;;;;13.05;3.95;;;;;;;;;;4992254;28;20028;-79
2021/01/03 09:13:55;;;;;;;7.68;4.20;;;;;;;;;;4992558;28;20506;-83
2021/01/03 09:16:40;;;;;;;10.35;4.38;;;;;;;;;;4991880;28;20034;-73
2021/01/03 09:19:17;;;;;;;7.60;4.00;;;;;;;;;;4992291;28;20109;-75
2021/01/03 09:21:51;;;;;;;8.77;3.67;;;;;;;;;;4992315;28;20476;-77
2021/01/03 09:24:25;;;;;;;9.13;4.68;;;;;;;;;;4993373;28;20027;-75
2021/01/03 09:26:52;;;;;;;11.85;5.28;;;;;;;;;;4992053;28;20058;-77
2021/01/03 09:29:25;;;;;;;10.43;4.57;;;;;;;;;;4995587;28;20022;-76
2021/01/03 09:32:08;;;;;;;11.80;4.40;;;;;;;;;;4995928;28;20141;-70
2021/01/03 09:34:53;;;;;;;11.93;4.78;;;;;;;;;;4995993;28;20050;-77
2021/01/03 09:37:19;;;;;;;9.18;5.15;;;;;;;;;;4995747;28;20188;-76
2021/01/03 09:40:00;;;;;;;12.73;5.03;;;;;;;;;;4995517;28;20042;-71
2021/01/03 09:42:32;;;;;;;9.43;4.00;;;;;;;;;;4996893;28;20480;-70
2021/01/03 09:45:05;;;;;;;11.23;4.65;;;;;;;;;;4995590;28;20050;-70
2021/01/03 09:47:46;;;;;;;11.02;4.97;;;;;;;;;;4996871;28;20479;-70
2021/01/03 09:50:15;;;;;;;11.60;4.80;;;;;;;;;;4995046;28;20034;-70
2021/01/03 09:52:44;;;;;;;10.57;4.70;;;;;;;;;;4995359;28;20030;-75
2021/01/03 09:55:18;;;;;;;11.52;4.60;;;;;;;;;;4997193;28;20072;-76
2021/01/03 09:57:58;;;;;;;10.52;4.18;;;;;;;;;;4995523;28;20080;-76
2021/01/03 10:00:26;;;;;;;11.00;4.32;;;;;;;;;;4995627;28;20360;-76
2021/01/03 10:02:53;;;;;;;9.20;4.03;;;;;;;;;;4996874;28;20034;-77
2021/01/03 10:05:31;;;;;;;10.30;4.53;;;;;;;;;;4996618;28;20105;-76
2021/01/03 10:08:01;;;;;;;9.40;4.38;;;;;;;;;;4995391;28;20037;-71
2021/01/03 10:10:46;;;;;;;13.90;5.00;;;;;;;;;;4995383;28;20550;-77
2021/01/03 10:13:13;;;;;;;11.32;4.75;;;;;;;;;;4994950;28;20022;-76
2021/01/03 10:15:41;;;;;;;13.35;4.75;;;;;;;;;;4996410;28;20030;-75
2021/01/03 10:18:09;;;;;;;8.75;4.53;;;;;;;;;;4995052;28;20038;-71
2021/01/03 10:20:41;;;;;;;10.63;4.82;;;;;;;;;;4995187;28;20057;-71
2021/01/03 10:23:08;;;;;;;9.55;4.15;;;;;;;;;;4994896;28;20022;-70
2021/01/03 10:25:34;;;;;;;11.90;4.47;;;;;;;;;;4996177;28;20026;-70
2021/01/03 10:28:15;;;;;;;12.07;4.32;;;;;;;;;;4994421;28;20050;-71
2021/01/03 10:30:42;;;;;;;15.77;5.40;;;;;;;;;;4996121;28;20038;-70
2021/01/03 10:33:08;;;;;;;13.70;5.78;;;;;;;;;;4996262;28;20030;-75
2021/01/03 10:35:35;;;;;;;12.45;5.13;;;;;;;;;;4996088;28;20187;-76
2021/01/03 10:38:03;;;;;;;11.32;5.47;;;;;;;;;;4994587;28;20018;-76
2021/01/03 10:40:29;;;;;;;12.60;6.13;;;;;;;;;;4995744;28;20121;-70
2021/01/03 10:42:55;;;;;;;16.02;5.63;;;;;;;;;;4995818;28;20026;-70
2021/01/03 10:45:22;;;;;;;14.23;6.35;;;;;;;;;;4995773;28;20105;-71
2021/01/03 10:47:49;;;;;;;10.60;4.88;;;;;;;;;;4995539;28;20054;-70
2021/01/03 10:50:17;;;;;;;12.77;5.47;;;;;;;;;;4995717;28;20058;-70
2021/01/03 10:52:43;;;;;;;12.27;4.75;;;;;;;;;;4994456;28;20110;-70
2021/01/03 10:55:10;;;;;;;13.93;5.22;;;;;;;;;;4995660;28;20023;-70
2021/01/03 10:57:36;;;;;;;11.73;5.60;;;;;;;;;;4994236;28;20030;-75
2021/01/03 11:00:05;;;;;;;12.65;5.63;;;;;;;;;;4994247;28;20101;-71
2021/01/03 11:02:31;;;;;;;12.75;5.35;;;;;;;;;;4995396;28;20030;-78
2021/01/03 11:04:58;;;;;;;18.95;6.30;;;;;;;;;;4995461;28;20026;-77
2021/01/03 11:07:24;;;;;;;12.40;5.80;;;;;;;;;;4995299;28;20459;-76
2021/01/03 11:09:50;;;;;;;12.68;5.63;;;;;;;;;;4995299;28;20045;-77
2021/01/03 11:12:17;;;;;;;17.02;6.72;;;;;;;;;;4995691;28;20023;-71
2021/01/03 11:14:44;;;;;;;16.92;7.00;;;;;;;;;;4994897;28;20494;-77
2021/01/03 11:17:12;;;;;;;17.85;7.10;;;;;;;;;;4994972;28;20034;-77
2021/01/03 11:19:38;;;;;;;15.68;7.38;;;;;;;;;;4995276;28;20028;-73
2021/01/03 11:22:06;;;;;;;15.55;6.30;;;;;;;;;;4995039;28;20035;-70
2021/01/03 11:24:33;;;;;;;17.33;5.97;;;;;;;;;;4994924;28;20480;-76
2021/01/03 11:27:03;;;;;;;14.45;6.82;;;;;;;;;;4994625;28;20050;-76
2021/01/03 11:29:29;;;;;;;15.40;6.97;;;;;;;;;;4993735;28;20045;-73
2021/01/03 11:31:57;;;;;;;13.15;6.07;;;;;;;;;;4995008;28;20026;-68
2021/01/03 11:34:25;;;;;;;17.95;7.18;;;;;;;;;;4994890;28;20034;-76
2021/01/03 11:36:56;;;;;;;18.35;7.90;;;;;;;;;;4993165;28;20555;-76
2021/01/03 11:39:22;;;;;;;14.40;6.80;;;;;;;;;;4993552;28;20026;-74
2021/01/03 11:41:50;;;;;;;15.95;6.63;;;;;;;;;;4993336;28;20027;-70
2021/01/03 11:44:17;;;;;;;12.30;6.07;;;;;;;;;;4993367;28;20438;-69
2021/01/03 11:46:43;;;;;;;13.48;6.10;;;;;;;;;;4994437;28;20073;-77
2021/01/03 11:49:10;;;;;;;14.02;6.90;;;;;;;;;;4993070;28;20395;-70
2021/01/03 11:51:37;;;;;;;12.90;5.40;;;;;;;;;;4992707;28;20034;-70
2021/01/03 11:54:03;;;;;;;14.73;6.10;;;;;;;;;;4993169;28;20061;-68
2021/01/03 11:56:29;;;;;;;15.68;6.30;;;;;;;;;;4977040;28;20045;-73
2021/01/03 11:58:55;;;;;;;11.15;5.72;;;;;;;;;;4993196;28;20069;-77
2021/01/03 12:01:23;;;;;;;14.68;6.32;;;;;;;;;;4994081;28;20057;-81
2021/01/03 12:03:49;;;;;;;13.55;5.82;;;;;;;;;;4994383;28;20026;-86
2021/01/03 12:06:22;;;;;;;14.80;6.63;;;;;;;;;;4994302;28;20030;-77
2021/01/03 12:08:49;;;;;;;12.25;5.10;;;;;;;;;;4993123;28;20022;-83
2021/01/03 12:11:16;;;;;;;13.55;5.88;;;;;;;;;;4994257;28;20088;-75
2021/01/03 12:13:45;;;;;;;8.63;4.53;;;;;;;;;;4993066;28;20033;-83
2021/01/03 12:16:11;;;;;;;15.45;5.72;;;;;;;;;;4992801;28;20042;-67
2021/01/03 12:18:37;;;;;;;16.02;6.57;;;;;;;;;;4994085;28;20037;-68
2021/01/03 12:21:03;;;;;;;11.88;5.97;;;;;;;;;;4993879;28;20483;-74
2021/01/03 12:23:29;;;;;;;15.43;6.20;;;;;;;;;;4992776;28;20023;-69
2021/01/03 12:25:55;;;;;;;14.25;7.35;;;;;;;;;;4992741;28;20465;-85
2021/01/03 12:28:21;;;;;;;14.43;6.55;;;;;;;;;;4973291;28;20039;-72
2021/01/03 12:30:47;;;;;;;14.13;6.13;;;;;;;;;;4973338;28;20031;-70
2021/01/03 12:33:13;;;;;;;11.85;5.28;;;;;;;;;;4974272;28;20023;-82
2021/01/03 12:35:40;;;;;;;13.07;6.78;;;;;;;;;;4973057;28;20129;-70
2021/01/03 12:38:06;;;;;;;14.65;6.70;;;;;;;;;;4972987;28;20031;-68
2021/01/03 12:40:32;;;;;;;14.88;5.85;;;;;;;;;;4973147;28;20024;-69
2021/01/03 12:43:00;;;;;;;17.20;7.97;;;;;;;;;;4976414;28;20023;-68
2021/01/03 12:45:26;;;;;;;13.77;6.45;;;;;;;;;;4987858;28;20034;-66
2021/01/03 12:47:52;;;;;;;18.45;7.25;;;;;;;;;;4993368;28;20029;-66
2021/01/03 12:50:19;;;;;;;17.33;6.05;;;;;;;;;;4993549;28;20039;-66
2021/01/03 12:52:45;;;;;;;13.32;6.22;;;;;;;;;;4993234;28;20034;-67
2021/01/03 12:55:11;;;;;;;18.17;7.43;;;;;;;;;;4993441;28;20121;-66
2021/01/03 12:57:37;;;;;;;12.43;5.57;;;;;;;;;;4993254;28;20038;-66
2021/01/03 13:00:05;;;;;;;20.38;7.20;;;;;;;;;;4993487;28;20421;-67
2021/01/03 13:02:31;;;;;;;17.27;7.07;;;;;;;;;;4994103;28;20360;-66
2021/01/03 13:04:58;;;;;;;14.27;6.30;;;;;;;;;;4997358;28;20029;-67
2021/01/03 13:07:24;;;;;;;13.10;6.55;;;;;;;;;;4997352;28;20463;-67
2021/01/03 13:09:50;;;;;;;21.35;8.05;;;;;;;;;;4997517;28;20019;-67
2021/01/03 13:12:16;;;;;;;16.63;6.97;;;;;;;;;;4997459;28;20566;-67
2021/01/03 13:14:42;;;;;;;17.52;7.45;;;;;;;;;;4996998;28;20029;-67
2021/01/03 13:17:08;;;;;;;24.48;8.30;;;;;;;;;;4997116;28;20037;-70
2021/01/03 13:19:34;;;;;;;17.50;7.90;;;;;;;;;;5004830;28;20042;-70
2021/01/03 13:22:00;;;;;;;13.57;6.95;;;;;;;;;;5000797;28;20087;-80
2021/01/03 13:24:27;;;;;;;16.20;7.07;;;;;;;;;;5011924;28;20022;-79
2021/01/03 13:26:53;;;;;;;16.25;7.18;;;;;;;;;;5022142;28;20050;-71
2021/01/03 13:29:20;;;;;;;17.92;8.32;;;;;;;;;;5035079;28;20068;-72
2021/01/03 13:31:46;;;;;;;17.90;7.68;;;;;;;;;;5036339;28;20093;-80
2021/01/03 13:34:12;;;;;;;20.17;8.00;;;;;;;;;;5034785;28;20034;-81
2021/01/03 13:36:42;;;;;;;18.05;8.35;;;;;;;;;;5022217;28;20038;-67
2021/01/03 13:39:08;;;;;;;16.10;7.90;;;;;;;;;;5014858;28;20103;-68
2021/01/03 13:41:35;;;;;;;17.08;7.40;;;;;;;;;;5016375;28;20034;-74
2021/01/03 13:44:01;;;;;;;15.52;6.82;;;;;;;;;;5015045;28;20045;-70
2021/01/03 13:46:27;;;;;;;17.33;6.97;;;;;;;;;;5015268;28;20511;-79
2021/01/03 13:48:53;;;;;;;16.98;7.55;;;;;;;;;;5016477;28;20065;-77
2021/01/03 13:51:20;;;;;;;15.00;6.93;;;;;;;;;;5013595;28;20025;-81
2021/01/03 13:53:47;;;;;;;16.50;6.78;;;;;;;;;;5006550;28;20038;-79
2021/01/03 13:56:13;;;;;;;14.93;7.38;;;;;;;;;;5006211;28;20041;-79
2021/01/03 13:58:39;;;;;;;17.67;8.05;;;;;;;;;;5003154;28;20026;-72
2021/01/03 14:01:06;;;;;;;16.80;7.40;;;;;;;;;;5010964;28;20033;-69
2021/01/03 14:03:33;;;;;;;16.42;6.93;;;;;;;;;;5004702;28;20023;-82
2021/01/03 14:05:59;;;;;;;16.60;7.95;;;;;;;;;;4995321;28;20038;-84
2021/01/03 14:08:25;;;;;;;15.80;6.95;;;;;;;;;;4996463;28;20026;-82
2021/01/03 14:10:51;;;;;;;14.35;6.63;;;;;;;;;;4996352;28;20069;-71
2021/01/03 14:13:18;;;;;;;24.63;9.57;;;;;;;;;;4995857;28;20101;-71
2021/01/03 14:15:44;;;;;;;27.25;10.77;;;;;;;;;;4998576;28;20045;-78
2021/01/03 14:18:10;;;;;;;27.13;11.30;;;;;;;;;;4987826;28;20018;-70
2021/01/03 14:20:36;;;;;;;23.20;9.40;;;;;;;;;;5014568;28;20030;-78
2021/01/03 14:23:03;;;;;;;16.50;7.03;;;;;;;;;;5014617;28;20064;-81
2021/01/03 14:25:30;;;;;;;18.75;7.65;;;;;;;;;;5015706;28;20037;-81
2021/01/03 14:27:56;;;;;;;17.13;7.65;;;;;;;;;;5018864;28;20054;-70
2021/01/03 14:30:24;;;;;;;16.08;6.85;;;;;;;;;;5020188;28;20482;-67
2021/01/03 14:32:55;;;;;;;15.82;7.00;;;;;;;;;;5031714;28;20486;-67
2021/01/03 14:35:22;;;;;;;16.50;7.60;;;;;;;;;;5033359;28;20037;-67
2021/01/03 14:37:54;;;;;;;16.77;7.18;;;;;;;;;;5015698;28;20033;-67
2021/01/03 14:40:22;;;;;;;19.85;7.20;;;;;;;;;;5014933;28;20783;-77
2021/01/03 14:42:51;;;;;;;18.70;8.23;;;;;;;;;;5015217;28;20065;-78
2021/01/03 14:45:25;;;;;;;18.65;7.28;;;;;;;;;;5015488;28;20026;-78